createdAt,value
2022-11-29T00:00:41.499Z,5.49
2022-11-29T00:03:08.078Z,5.40
2022-11-29T00:05:34.941Z,5.34
2022-11-29T00:08:01.448Z,5.30
2022-11-29T00:10:27.831Z,5.39
2022-11-29T00:12:54.215Z,5.38
2022-11-29T00:15:20.874Z,5.31
2022-11-29T00:17:47.237Z,5.25
2022-11-29T00:20:13.859Z,5.29
2022-11-29T00:22:40.357Z,5.26
2022-11-29T00:25:07.222Z,5.26
2022-11-29T00:27:33.659Z,5.10
2022-11-29T00:30:03.976Z,5.03
2022-11-29T00:32:30.377Z,4.96
2022-11-29T00:34:59.515Z,4.94
2022-11-29T00:37:27.268Z,4.91
2022-11-29T00:39:53.639Z,4.88
2022-11-29T00:42:20.690Z,4.88
2022-11-29T00:44:47.229Z,4.83
2022-11-29T00:47:13.655Z,4.77
2022-11-29T00:49:40.192Z,4.69
2022-11-29T00:52:06.594Z,4.66
2022-11-29T00:54:33.129Z,4.66
2022-11-29T00:56:59.582Z,4.71
2022-11-29T00:59:27.069Z,4.68
2022-11-29T01:01:53.524Z,4.70
2022-11-29T01:04:20.047Z,4.65
2022-11-29T01:06:46.444Z,4.60
2022-11-29T01:09:12.878Z,4.56
2022-11-29T01:11:39.406Z,4.47
2022-11-29T01:14:05.837Z,4.48
2022-11-29T01:16:33.965Z,4.52
2022-11-29T01:19:00.585Z,4.48
2022-11-29T01:21:27.491Z,4.48
2022-11-29T01:23:54.389Z,4.43
2022-11-29T01:26:23.852Z,4.33
2022-11-29T01:28:51.952Z,4.30
2022-11-29T01:31:22.077Z,4.36
2022-11-29T01:33:48.708Z,4.34
2022-11-29T01:36:15.114Z,4.34
2022-11-29T01:38:44.597Z,4.33
2022-11-29T01:41:17.281Z,4.27
2022-11-29T01:44:11.350Z,4.21
2022-11-29T01:46:43.460Z,4.20
2022-11-29T01:49:48.144Z,4.26
2022-11-29T01:52:19.542Z,4.14
2022-11-29T01:54:52.341Z,4.12
2022-11-29T01:57:20.189Z,4.12
2022-11-29T01:59:50.160Z,4.22
2022-11-29T02:02:41.500Z,4.22
2022-11-29T02:05:08.645Z,4.07
2022-11-29T02:07:35.565Z,3.99
2022-11-29T02:10:04.479Z,4.02
2022-11-29T02:12:41.019Z,3.99
2022-11-29T02:15:32.514Z,4.02
2022-11-29T02:18:03.285Z,3.96
2022-11-29T02:20:35.627Z,4.04
2022-11-29T02:23:26.561Z,3.94
2022-11-29T02:26:03.162Z,3.90
2022-11-29T02:29:00.846Z,3.89
2022-11-29T02:31:49.344Z,3.80
2022-11-29T02:34:18.642Z,3.77
2022-11-29T02:37:08.586Z,3.74
2022-11-29T02:39:54.114Z,3.72
2022-11-29T02:42:29.272Z,3.77
2022-11-29T02:45:10.455Z,3.71
2022-11-29T02:47:52.385Z,3.64
2022-11-29T02:50:27.206Z,3.66
2022-11-29T02:53:02.708Z,3.66
2022-11-29T02:55:39.520Z,3.68
2022-11-29T02:58:21.236Z,3.74
2022-11-29T03:01:02.830Z,3.66
2022-11-29T03:03:38.886Z,3.69
2022-11-29T03:06:20.485Z,3.62
2022-11-29T03:08:59.510Z,3.67
2022-11-29T03:11:34.651Z,3.63
2022-11-29T03:14:06.805Z,3.62
2022-11-29T03:17:05.938Z,3.62
2022-11-29T03:20:01.170Z,3.72
2022-11-29T03:22:52.594Z,3.81
2022-11-29T03:25:42.399Z,3.83
2022-11-29T03:28:20.991Z,3.76
2022-11-29T03:30:55.956Z,3.70
2022-11-29T03:33:39.410Z,3.71
2022-11-29T03:36:16.271Z,3.67
2022-11-29T03:38:45.864Z,3.71
2022-11-29T03:41:30.681Z,3.73
2022-11-29T03:44:03.234Z,3.68
2022-11-29T03:46:56.343Z,3.65
2022-11-29T03:49:35.648Z,3.70
2022-11-29T03:52:32.135Z,3.69
2022-11-29T03:55:23.046Z,3.67
2022-11-29T03:58:10.964Z,3.69
2022-11-29T04:00:49.257Z,3.71
2022-11-29T04:03:37.056Z,3.74
2022-11-29T04:06:21.869Z,3.74
2022-11-29T04:09:11.500Z,3.83
2022-11-29T04:11:56.254Z,3.79
2022-11-29T04:14:53.935Z,3.75
2022-11-29T04:17:51.489Z,3.79
2022-11-29T04:20:41.126Z,3.74
2022-11-29T04:23:24.756Z,3.74
2022-11-29T04:26:20.528Z,3.72
2022-11-29T04:29:10.143Z,3.77
2022-11-29T04:31:50.938Z,3.74
2022-11-29T04:34:43.992Z,3.71
2022-11-29T04:37:36.677Z,3.80
2022-11-29T04:40:14.636Z,3.77
2022-11-29T04:43:25.764Z,3.89
2022-11-29T04:46:07.216Z,3.90
2022-11-29T04:48:39.658Z,3.97
2022-11-29T04:51:24.624Z,3.85
2022-11-29T04:53:59.316Z,3.80
2022-11-29T04:56:30.896Z,3.81
2022-11-29T04:59:24.015Z,3.80
2022-11-29T05:02:09.424Z,3.74
2022-11-29T05:04:51.712Z,3.84
2022-11-29T05:07:31.216Z,3.89
2022-11-29T05:10:22.172Z,3.79
2022-11-29T05:12:59.592Z,3.75
2022-11-29T05:15:41.311Z,3.65
2022-11-29T05:18:33.428Z,3.70
2022-11-29T05:21:22.640Z,3.62
2022-11-29T05:24:00.550Z,3.63
2022-11-29T05:26:38.278Z,3.60
2022-11-29T05:29:37.497Z,3.55
2022-11-29T05:32:24.275Z,3.50
2022-11-29T05:35:19.082Z,3.50
2022-11-29T05:37:51.413Z,3.45
2022-11-29T05:40:17.756Z,3.38
2022-11-29T05:43:04.258Z,3.32
2022-11-29T05:45:57.601Z,3.26
2022-11-29T05:48:45.180Z,3.22
2022-11-29T05:51:54.911Z,3.30
2022-11-29T05:54:34.265Z,3.45
2022-11-29T05:57:28.444Z,3.50
2022-11-29T05:59:57.457Z,3.42
2022-11-29T06:02:42.636Z,3.41
2022-11-29T06:05:24.135Z,3.40
2022-11-29T06:08:02.606Z,3.25
2022-11-29T06:10:32.963Z,3.33
2022-11-29T06:13:00.225Z,3.38
2022-11-29T06:15:43.761Z,3.35
2022-11-29T06:18:33.496Z,3.37
2022-11-29T06:21:02.770Z,3.37
2022-11-29T06:23:45.077Z,3.35
2022-11-29T06:26:36.026Z,3.34
2022-11-29T06:29:29.482Z,3.28
2022-11-29T06:32:20.215Z,3.34
2022-11-29T06:35:08.014Z,3.32
2022-11-29T06:37:41.921Z,3.40
2022-11-29T06:40:14.479Z,3.40
2022-11-29T06:42:40.923Z,3.36
2022-11-29T06:45:08.268Z,3.40
2022-11-29T06:47:55.233Z,3.35
2022-11-29T06:50:29.414Z,3.33
2022-11-29T06:53:33.667Z,3.39
2022-11-29T06:56:18.788Z,3.34
2022-11-29T06:59:20.017Z,3.35
2022-11-29T07:01:56.526Z,3.29
2022-11-29T07:05:00.298Z,3.31
2022-11-29T07:07:27.015Z,3.28
2022-11-29T07:10:00.334Z,3.28
2022-11-29T07:12:27.246Z,3.21
2022-11-29T07:14:54.062Z,3.24
2022-11-29T07:17:41.925Z,3.20
2022-11-29T07:20:14.108Z,3.19
2022-11-29T07:22:55.886Z,3.15
2022-11-29T07:25:35.090Z,3.11
2022-11-29T07:28:04.146Z,3.08
2022-11-29T07:30:46.791Z,3.09
2022-11-29T07:33:22.370Z,3.07
2022-11-29T07:36:02.235Z,3.00
2022-11-29T07:38:50.652Z,3.04
2022-11-29T07:41:47.964Z,3.07
2022-11-29T07:44:32.858Z,3.05
2022-11-29T07:46:59.318Z,2.99
2022-11-29T07:49:25.835Z,2.98
2022-11-29T07:51:54.366Z,3.00
2022-11-29T07:54:22.237Z,3.05
2022-11-29T07:56:48.706Z,3.04
2022-11-29T07:59:15.231Z,2.99
2022-11-29T08:01:42.571Z,3.00
2022-11-29T08:04:09.862Z,2.99
2022-11-29T08:06:36.556Z,2.97
2022-11-29T08:09:04.019Z,2.89
2022-11-29T08:11:30.444Z,2.90
2022-11-29T08:13:58.692Z,2.84
2022-11-29T08:16:25.186Z,2.91
2022-11-29T08:18:54.330Z,2.93
2022-11-29T08:21:21.175Z,3.00
2022-11-29T08:23:49.140Z,2.99
2022-11-29T08:26:16.834Z,2.99
2022-11-29T08:28:43.366Z,2.95
2022-11-29T08:31:11.864Z,2.94
2022-11-29T08:33:41.165Z,2.96
2022-11-29T08:36:08.638Z,3.02
2022-11-29T08:38:35.053Z,3.01
2022-11-29T08:41:03.242Z,3.05
2022-11-29T08:43:30.498Z,3.01
2022-11-29T08:45:58.153Z,3.09
2022-11-29T08:48:25.162Z,3.07
2022-11-29T08:50:53.190Z,3.14
2022-11-29T08:53:39.293Z,3.16
2022-11-29T08:56:31.913Z,3.21
2022-11-29T08:58:52.367Z,3.31
2022-11-29T09:01:19.583Z,3.31
2022-11-29T09:04:07.050Z,3.26
2022-11-29T09:06:39.116Z,3.31
2022-11-29T09:09:06.155Z,3.36
2022-11-29T09:11:36.281Z,3.41
2022-11-29T09:14:06.123Z,3.45
2022-11-29T09:16:35.234Z,3.52
2022-11-29T09:19:02.029Z,3.54
2022-11-29T09:21:30.969Z,3.57
2022-11-29T09:23:59.837Z,3.62
2022-11-29T09:26:30.755Z,3.67
2022-11-29T09:29:01.096Z,3.76
2022-11-29T09:31:29.376Z,3.86
2022-11-29T09:33:56.159Z,3.90
2022-11-29T09:36:27.847Z,3.96
2022-11-29T09:38:55.198Z,4.01
2022-11-29T09:41:58.871Z,4.05
2022-11-29T09:44:28.201Z,4.02
2022-11-29T09:47:18.529Z,4.00
2022-11-29T09:50:21.183Z,3.99
2022-11-29T09:52:58.122Z,4.05
2022-11-29T09:55:46.204Z,4.10
2022-11-29T09:58:21.540Z,4.15
2022-11-29T10:00:58.552Z,4.26
2022-11-29T10:03:30.822Z,4.31
2022-11-29T10:06:02.693Z,4.44
2022-11-29T10:08:47.638Z,4.58
2022-11-29T10:11:35.003Z,4.66
2022-11-29T10:14:11.833Z,4.66
2022-11-29T10:16:44.320Z,4.72
2022-11-29T10:19:36.266Z,4.92
2022-11-29T10:22:15.541Z,5.05
2022-11-29T10:24:46.259Z,5.26
2022-11-29T10:27:19.275Z,5.66
2022-11-29T10:29:50.220Z,6.36
2022-11-29T10:32:19.686Z,6.83
2022-11-29T10:34:50.530Z,6.91
2022-11-29T10:37:23.122Z,6.94
2022-11-29T10:40:07.759Z,7.11
2022-11-29T10:42:49.012Z,6.89
2022-11-29T10:45:38.907Z,7.00
2022-11-29T10:48:11.847Z,7.07
2022-11-29T10:50:42.695Z,6.92
2022-11-29T10:53:16.560Z,6.75
2022-11-29T10:55:50.939Z,6.63
2022-11-29T10:58:28.682Z,6.64
2022-11-29T11:00:57.314Z,6.46
2022-11-29T11:03:32.727Z,6.29
2022-11-29T11:06:06.618Z,6.28
2022-11-29T11:08:34.203Z,6.46
2022-11-29T11:11:02.422Z,6.98
2022-11-29T11:13:31.062Z,7.04
2022-11-29T11:16:08.764Z,7.07
2022-11-29T11:18:36.254Z,7.33
2022-11-29T11:21:04.675Z,7.70
2022-11-29T11:23:36.385Z,7.88
2022-11-29T11:26:11.569Z,8.00
2022-11-29T11:28:47.087Z,8.10
2022-11-29T11:31:14.077Z,8.31
2022-11-29T11:33:43.048Z,8.85
2022-11-29T11:36:13.533Z,9.30
2022-11-29T11:38:55.407Z,9.82
2022-11-29T11:41:46.379Z,9.84
2022-11-29T11:44:46.461Z,9.29
2022-11-29T11:47:21.290Z,8.44
2022-11-29T11:50:06.780Z,8.13
2022-11-29T11:52:41.261Z,7.66
2022-11-29T11:55:21.452Z,7.35
2022-11-29T11:58:12.284Z,7.12
2022-11-29T12:01:07.914Z,7.00
2022-11-29T12:04:13.111Z,7.05
2022-11-29T12:06:43.113Z,6.95
2022-11-29T12:09:09.938Z,6.97
2022-11-29T12:11:56.953Z,6.93
2022-11-29T12:14:43.045Z,6.83
2022-11-29T12:17:20.242Z,6.80
2022-11-29T12:19:59.207Z,6.94
2022-11-29T12:22:34.397Z,6.88
2022-11-29T12:25:05.437Z,6.81
2022-11-29T12:27:32.091Z,6.91
2022-11-29T12:29:58.646Z,6.85
2022-11-29T12:32:57.808Z,6.91
2022-11-29T12:35:36.125Z,7.01
2022-11-29T12:38:05.638Z,7.02
2022-11-29T12:41:08.929Z,6.95
2022-11-29T12:44:03.968Z,7.05
2022-11-29T12:46:31.267Z,7.05
2022-11-29T12:49:30.273Z,7.11
2022-11-29T12:52:18.675Z,7.13
2022-11-29T12:55:16.070Z,7.06
2022-11-29T12:58:08.270Z,6.89
2022-11-29T13:00:50.297Z,7.04
2022-11-29T13:03:29.023Z,7.04
2022-11-29T13:06:08.006Z,7.02
2022-11-29T13:08:56.477Z,7.03
2022-11-29T13:11:36.644Z,7.07
2022-11-29T13:17:21.420Z,7.06
2022-11-29T13:19:55.906Z,7.11
2022-11-29T13:23:00.596Z,7.01
2022-11-29T13:25:41.497Z,7.11
2022-11-29T13:28:25.339Z,7.11
2022-11-29T13:30:55.071Z,7.14
2022-11-29T13:33:32.566Z,7.10
2022-11-29T13:36:16.440Z,7.15
2022-11-29T13:38:55.295Z,7.14
2022-11-29T13:41:32.899Z,7.16
2022-11-29T13:44:11.609Z,7.17
2022-11-29T13:47:05.955Z,7.18
2022-11-29T13:49:54.229Z,7.19
2022-11-29T13:52:39.390Z,7.40
2022-11-29T13:55:11.804Z,7.54
2022-11-29T13:58:19.908Z,7.57
2022-11-29T14:00:46.268Z,7.61
2022-11-29T14:03:19.091Z,7.70
2022-11-29T14:05:47.946Z,7.66
2022-11-29T14:11:33.801Z,7.57
2022-11-29T14:14:07.025Z,7.53
2022-11-29T14:16:48.789Z,7.48
2022-11-29T14:19:30.068Z,7.57
2022-11-29T14:22:01.645Z,7.51
2022-11-29T14:24:37.320Z,7.50
2022-11-29T14:27:06.887Z,7.48
2022-11-29T14:29:49.056Z,7.47
2022-11-29T14:32:24.667Z,7.39
2022-11-29T14:35:32.349Z,7.43
2022-11-29T14:38:14.992Z,7.43
2022-11-29T14:40:41.523Z,7.44
2022-11-29T14:43:16.804Z,7.44
2022-11-29T14:45:43.495Z,7.41
2022-11-29T14:48:31.709Z,7.42
2022-11-29T14:51:13.773Z,7.39
2022-11-29T14:53:42.741Z,7.37
2022-11-29T14:56:42.424Z,7.44
2022-11-29T14:59:36.860Z,7.42
2022-11-29T15:02:16.838Z,7.37
2022-11-29T15:04:44.096Z,7.35
2022-11-29T15:07:17.171Z,7.34
2022-11-29T15:09:45.861Z,7.30
2022-11-29T15:12:21.544Z,7.33
2022-11-29T15:15:20.442Z,7.33
2022-11-29T15:17:55.870Z,7.31
2022-11-29T15:20:51.389Z,7.29
2022-11-29T15:23:19.045Z,7.29
2022-11-29T15:25:51.439Z,7.25
2022-11-29T15:28:26.904Z,7.23
2022-11-29T15:31:09.069Z,7.26
2022-11-29T15:33:39.239Z,7.25
2022-11-29T15:36:19.168Z,7.28
2022-11-29T15:38:51.577Z,7.31
2022-11-29T15:41:29.958Z,7.32
2022-11-29T15:44:02.505Z,7.46
2022-11-29T15:46:31.585Z,7.49
2022-11-29T15:49:22.822Z,7.46
2022-11-29T15:51:55.740Z,7.40
2022-11-29T15:54:38.389Z,7.22
2022-11-29T15:57:35.044Z,7.28
2022-11-29T16:00:04.240Z,7.22
2022-11-29T16:02:33.767Z,7.24
2022-11-29T16:05:14.316Z,7.21
2022-11-29T16:07:41.812Z,7.14
2022-11-29T16:10:16.660Z,7.10
2022-11-29T16:12:54.505Z,7.13
2022-11-29T16:15:33.132Z,7.10
2022-11-29T16:18:22.178Z,7.04
2022-11-29T16:21:21.918Z,7.00
2022-11-29T16:23:48.417Z,6.94
2022-11-29T16:26:35.944Z,6.86
2022-11-29T16:29:02.679Z,6.83
2022-11-29T16:31:35.215Z,6.74
2022-11-29T16:34:24.634Z,6.66
2022-11-29T16:37:02.829Z,6.46
2022-11-29T16:39:30.228Z,6.51
2022-11-29T16:42:06.471Z,6.40
2022-11-29T16:44:45.613Z,6.38
2022-11-29T16:47:18.604Z,6.30
2022-11-29T16:49:45.522Z,6.18
2022-11-29T16:52:26.933Z,6.21
2022-11-29T16:54:53.496Z,6.17
2022-11-29T16:57:20.736Z,6.13
2022-11-29T16:59:47.402Z,6.09
2022-11-29T17:02:15.576Z,6.00
2022-11-29T17:04:43.334Z,5.94
2022-11-29T17:07:24.586Z,5.89
2022-11-29T17:09:52.378Z,5.90
2022-11-29T17:12:19.448Z,5.85
2022-11-29T17:14:46.017Z,5.81
2022-11-29T17:17:17.723Z,5.76
2022-11-29T17:19:45.126Z,5.78
2022-11-29T17:22:12.516Z,5.81
2022-11-29T17:24:42.312Z,5.83
2022-11-29T17:27:12.952Z,5.77
2022-11-29T17:29:39.387Z,5.75
2022-11-29T17:32:05.910Z,5.81
2022-11-29T17:34:33.343Z,5.81
2022-11-29T17:36:59.893Z,5.82
2022-11-29T17:39:26.334Z,5.83
2022-11-29T17:41:52.769Z,5.83
2022-11-29T17:44:19.196Z,5.83
2022-11-29T17:46:45.749Z,5.81
2022-11-29T17:49:12.238Z,5.77
2022-11-29T17:51:55.930Z,5.89
2022-11-29T17:54:22.967Z,5.84
2022-11-29T17:56:49.992Z,5.83
2022-11-29T17:59:16.496Z,5.84
2022-11-29T18:01:43.076Z,5.69
2022-11-29T18:04:09.544Z,5.83
2022-11-29T18:06:40.776Z,5.83
2022-11-29T18:09:09.688Z,5.83
2022-11-29T18:11:46.806Z,5.84
2022-11-29T18:14:16.302Z,5.89
2022-11-29T18:16:45.215Z,5.90
2022-11-29T18:19:13.690Z,5.91
2022-11-29T18:21:40.264Z,5.95
2022-11-29T18:24:07.395Z,5.97
2022-11-29T18:26:35.458Z,5.97
2022-11-29T18:29:02.103Z,5.96
2022-11-29T18:31:31.135Z,5.95
2022-11-29T18:33:59.965Z,5.92
2022-11-29T18:36:31.807Z,5.91
2022-11-29T18:39:01.447Z,5.88
2022-11-29T18:41:30.028Z,5.91
2022-11-29T18:44:05.226Z,5.93
2022-11-29T18:46:32.969Z,5.91
2022-11-29T18:49:03.588Z,5.87
2022-11-29T18:51:31.412Z,5.89
2022-11-29T18:53:58.799Z,5.96
2022-11-29T18:56:27.509Z,5.93
2022-11-29T18:58:58.341Z,5.93
2022-11-29T19:01:27.612Z,5.94
2022-11-29T19:03:56.594Z,5.91
2022-11-29T19:06:32.852Z,5.90
2022-11-29T19:09:05.204Z,5.93
2022-11-29T19:11:33.040Z,5.90
2022-11-29T19:14:03.117Z,5.93
2022-11-29T19:16:32.044Z,5.90
2022-11-29T19:19:00.217Z,5.89
2022-11-29T19:21:28.149Z,5.93
2022-11-29T19:23:57.754Z,5.93
2022-11-29T19:26:26.687Z,5.92
2022-11-29T19:28:53.676Z,5.93
2022-11-29T19:31:23.878Z,5.93
2022-11-29T19:33:52.450Z,5.93
2022-11-29T19:36:28.017Z,5.90
2022-11-29T19:38:55.189Z,5.92
2022-11-29T19:41:24.468Z,5.92
2022-11-29T19:43:51.605Z,5.91
2022-11-29T19:46:21.186Z,5.90
2022-11-29T19:48:48.044Z,5.92
2022-11-29T19:51:17.500Z,5.95
2022-11-29T19:53:45.302Z,5.96
2022-11-29T19:56:14.767Z,5.98
2022-11-29T19:58:41.855Z,5.95
2022-11-29T20:01:12.262Z,5.97
2022-11-29T20:03:39.070Z,5.97
2022-11-29T20:06:05.866Z,5.97
2022-11-29T20:08:32.648Z,5.86
2022-11-29T20:11:16.876Z,5.90
2022-11-29T20:13:44.916Z,6.00
2022-11-29T20:16:14.642Z,6.02
2022-11-29T20:18:48.766Z,6.01
2022-11-29T20:21:20.923Z,6.01
2022-11-29T20:23:48.009Z,5.99
2022-11-29T20:26:17.394Z,5.99
2022-11-29T20:28:44.166Z,5.98
2022-11-29T20:31:14.277Z,5.98
2022-11-29T20:33:42.918Z,5.89
2022-11-29T20:36:27.857Z,5.99
2022-11-29T20:39:14.562Z,5.96
2022-11-29T20:41:53.083Z,5.97
2022-11-29T20:44:56.552Z,5.90
2022-11-29T20:47:40.048Z,5.86
2022-11-29T20:50:07.475Z,5.86
2022-11-29T20:52:44.703Z,5.78
2022-11-29T20:55:11.226Z,5.77
2022-11-29T20:57:40.759Z,5.81
2022-11-29T21:00:11.259Z,5.79
2022-11-29T21:02:38.218Z,5.72
2022-11-29T21:05:05.263Z,5.78
2022-11-29T21:07:31.817Z,5.67
2022-11-29T21:10:01.419Z,5.59
2022-11-29T21:12:29.448Z,5.44
2022-11-29T21:14:56.595Z,5.42
2022-11-29T21:17:26.446Z,5.41
2022-11-29T21:19:56.808Z,5.43
2022-11-29T21:22:35.403Z,5.44
2022-11-29T21:25:30.249Z,5.40
2022-11-29T21:27:57.009Z,5.35
2022-11-29T21:30:24.887Z,5.31
2022-11-29T21:32:52.132Z,5.29
2022-11-29T21:35:18.685Z,5.22
2022-11-29T21:37:45.659Z,5.19
2022-11-29T21:40:13.380Z,5.27
2022-11-29T21:42:39.819Z,5.21
2022-11-29T21:45:11.673Z,5.22
2022-11-29T21:47:41.190Z,5.30
2022-11-29T21:50:08.380Z,5.27
2022-11-29T21:52:34.815Z,5.32
2022-11-29T21:55:01.431Z,5.33
2022-11-29T21:57:27.911Z,5.32
2022-11-29T21:59:54.392Z,5.33
2022-11-29T22:02:20.922Z,5.34
2022-11-29T22:04:47.611Z,5.36
2022-11-29T22:07:14.254Z,5.38
2022-11-29T22:09:40.689Z,5.38
2022-11-29T22:12:31.790Z,5.38
2022-11-29T22:14:53.736Z,5.35
2022-11-29T22:17:20.113Z,5.31
2022-11-29T22:19:46.491Z,5.35
2022-11-29T22:22:13.215Z,5.29
2022-11-29T22:24:39.599Z,5.25
2022-11-29T22:27:06.077Z,5.22
2022-11-29T22:29:33.618Z,5.16
2022-11-29T22:32:01.340Z,5.17
2022-11-29T22:34:28.099Z,5.11
2022-11-29T22:36:54.835Z,5.06
2022-11-29T22:39:21.367Z,5.02
2022-11-29T22:41:53.567Z,4.95
2022-11-29T22:44:20.305Z,4.93
2022-11-29T22:46:46.798Z,4.91
2022-11-29T22:49:13.383Z,4.88
2022-11-29T22:51:39.878Z,4.91
2022-11-29T22:54:08.927Z,5.01
2022-11-29T22:56:40.920Z,5.12
2022-11-29T22:59:07.883Z,5.14
2022-11-29T23:01:36.517Z,5.23
2022-11-29T23:04:05.253Z,5.28
2022-11-29T23:06:37.218Z,5.29
2022-11-29T23:09:16.600Z,5.25
2022-11-29T23:11:44.841Z,5.34
2022-11-29T23:14:11.824Z,5.34
2022-11-29T23:16:38.330Z,5.35
2022-11-29T23:19:04.757Z,5.41
2022-11-29T23:21:34.017Z,5.39
2022-11-29T23:24:01.505Z,5.44
2022-11-29T23:26:36.267Z,5.42
2022-11-29T23:29:04.011Z,5.40
2022-11-29T23:31:30.512Z,5.36
2022-11-29T23:33:57.016Z,5.41
2022-11-29T23:36:24.679Z,5.43
2022-11-29T23:38:51.277Z,5.45
2022-11-29T23:41:18.352Z,5.45
2022-11-29T23:43:44.775Z,5.44
2022-11-29T23:46:17.012Z,5.49
2022-11-29T23:48:44.375Z,5.46
2022-11-29T23:51:11.894Z,5.49
2022-11-29T23:53:38.715Z,5.49
2022-11-29T23:56:07.888Z,5.52
2022-11-29T23:58:34.936Z,5.49
